Time;durP1;ratioP1;P1;durP2;ratioP2;P2;SDS_P1;SDS_P2;PMS_P1;PMS_P2;Temp;Humidity;BMP_temperature;BMP_pressure;BME280_temperature;BME280_humidity;BME280_pressure;Samples;Min_cycle;Max_cycle;Signal;HPM_P1;HPM_P2
2021/04/12 00:02:32;;;;;;;6.07;4.20;;;5.60;99.90;;;;;;5033437;22;20480;-71
2021/04/12 00:05:10;;;;;;;4.03;3.70;;;5.50;99.90;;;;;;5033159;28;20487;-71
2021/04/12 00:07:53;;;;;;;4.00;3.70;;;5.30;99.90;;;;;;5032787;28;20871;-71
2021/04/12 00:10:30;;;;;;;4.50;4.20;;;5.40;99.90;;;;;;5030739;28;20425;-71
2021/04/12 00:13:30;;;;;;;4.60;4.30;;;5.30;99.90;;;;;;5031758;28;20463;-71
2021/04/12 00:16:06;;;;;;;4.73;4.43;;;5.30;99.90;;;;;;5023562;28;20844;-71
2021/04/12 00:18:50;;;;;;;4.77;4.47;;;5.40;99.90;;;;;;5031843;28;20512;-71
2021/04/12 00:21:40;;;;;;;6.70;4.73;;;5.40;99.90;;;;;;5041523;28;20453;-71
2021/04/12 00:24:17;;;;;;;4.97;4.57;;;5.40;99.90;;;;;;5030841;28;20436;-72
2021/04/12 00:27:14;;;;;;;5.20;4.80;;;5.30;99.90;;;;;;5031743;28;20433;-72
2021/04/12 00:29:48;;;;;;;5.20;4.80;;;5.20;99.90;;;;;;5025134;28;20914;-71
2021/04/12 00:32:29;;;;;;;4.57;4.17;;;5.20;99.90;;;;;;5031748;28;20449;-71
2021/04/12 00:35:09;;;;;;;4.87;4.47;;;5.20;99.90;;;;;;5031834;28;20592;-72
2021/04/12 00:38:07;;;;;;;5.27;4.87;;;5.10;99.90;;;;;;5031836;28;20452;-71
2021/04/12 00:41:08;;;;;;;5.13;4.73;;;5.10;99.90;;;;;;5030913;28;20436;-71
2021/04/12 00:43:52;;;;;;;4.40;4.00;;;5.20;99.90;;;;;;5031435;28;20432;-71
2021/04/12 00:46:53;;;;;;;6.33;5.83;;;5.10;99.90;;;;;;5031824;28;20433;-71
2021/04/12 00:49:46;;;;;;;5.07;4.67;;;5.10;99.90;;;;;;5030771;28;20436;-71
2021/04/12 00:52:38;;;;;;;5.87;5.37;;;5.00;99.90;;;;;;5031241;28;20468;-71
2021/04/12 00:55:23;;;;;;;4.77;4.40;;;5.00;99.90;;;;;;5031702;28;20469;-71
2021/04/12 00:58:17;;;;;;;5.20;4.80;;;5.00;99.90;;;;;;5032026;28;20468;-71
2021/04/12 01:00:49;;;;;;;5.60;5.20;;;5.00;99.90;;;;;;5018919;28;20830;-71
2021/04/12 01:03:47;;;;;;;5.20;4.80;;;5.00;99.90;;;;;;5031182;28;20540;-71
2021/04/12 01:06:33;;;;;;;5.13;4.63;;;5.00;99.90;;;;;;5003118;28;20425;-71
2021/04/12 01:09:33;;;;;;;4.80;4.40;;;5.00;99.90;;;;;;5030760;28;20428;-71
2021/04/12 01:12:44;;;;;;;5.10;4.30;;;5.00;99.90;;;;;;5031093;28;20460;-71
2021/04/12 01:15:38;;;;;;;5.20;4.80;;;5.00;99.90;;;;;;5031293;28;20428;-71
2021/04/12 01:18:45;;;;;;;5.43;5.03;;;4.90;99.90;;;;;;5030707;28;20464;-71
2021/04/12 01:21:45;;;;;;;5.53;5.03;;;4.80;99.90;;;;;;5030164;28;20480;-70
2021/04/12 01:24:31;;;;;;;6.17;5.57;;;4.80;99.90;;;;;;5027742;28;20776;-71
2021/04/12 01:27:22;;;;;;;5.70;5.20;;;4.80;99.90;;;;;;5029428;28;20791;-71
2021/04/12 01:30:12;;;;;;;6.00;5.50;;;4.80;99.90;;;;;;5030322;28;20508;-71
2021/04/12 01:33:08;;;;;;;5.93;5.47;;;4.70;99.90;;;;;;5030394;28;20524;-71
2021/04/12 01:35:37;;;;;;;6.70;6.00;;;4.70;99.90;;;;;;5025169;28;20445;-71
2021/04/12 01:38:24;;;;;;;6.40;5.80;;;4.70;99.90;;;;;;5030618;28;20551;-71
2021/04/12 01:41:11;;;;;;;7.27;6.57;;;4.60;99.90;;;;;;5029750;28;21003;-71
2021/04/12 01:44:07;;;;;;;6.70;6.10;;;4.70;99.90;;;;;;5030632;28;20439;-71
2021/04/12 01:46:33;;;;;;;7.40;6.70;;;4.60;99.90;;;;;;5030620;28;20798;-71
2021/04/12 01:49:21;;;;;;;6.57;5.97;;;4.70;99.90;;;;;;5030093;28;20429;-71
2021/04/12 01:51:56;;;;;;;7.60;6.90;;;4.70;99.90;;;;;;5029673;28;20194;-72
2021/04/12 01:54:47;;;;;;;7.30;6.63;;;4.80;99.90;;;;;;5030569;28;20507;-71
2021/04/12 01:58:03;;;;;;;6.10;5.50;;;4.70;99.90;;;;;;5027775;28;20537;-71
2021/04/12 02:00:42;;;;;;;6.70;6.00;;;4.80;99.90;;;;;;4956407;28;20430;-71
2021/04/12 02:03:38;;;;;;;7.07;6.43;;;4.70;99.90;;;;;;5028949;28;20469;-71
2021/04/12 02:06:31;;;;;;;5.97;5.47;;;4.70;99.90;;;;;;5030121;28;20963;-71
2021/04/12 02:09:10;;;;;;;7.10;5.37;;;4.80;99.90;;;;;;5028892;28;20515;-71
2021/04/12 02:11:35;;;;;;;5.47;5.07;;;4.80;99.90;;;;;;5030094;28;20468;-71
2021/04/12 02:14:22;;;;;;;5.30;4.90;;;4.80;99.90;;;;;;5030147;28;20467;-71
2021/04/12 02:17:11;;;;;;;5.90;5.40;;;4.80;99.90;;;;;;5029882;28;20185;-71
2021/04/12 02:20:12;;;;;;;5.13;4.70;;;4.70;99.90;;;;;;5029346;28;20429;-71
2021/04/12 02:23:11;;;;;;;5.83;5.33;;;4.70;99.90;;;;;;5030193;28;20813;-71
2021/04/12 02:25:49;;;;;;;5.60;5.10;;;4.60;99.90;;;;;;5015305;28;21214;-71
2021/04/12 02:28:43;;;;;;;4.80;4.40;;;4.60;99.90;;;;;;5030358;28;20504;-71
2021/04/12 02:31:21;;;;;;;6.07;5.50;;;4.60;99.90;;;;;;5021532;28;20465;-71
2021/04/12 02:33:55;;;;;;;7.10;6.43;;;4.60;99.90;;;;;;5014944;28;20432;-71
2021/04/12 02:36:32;;;;;;;5.67;5.17;;;4.60;99.90;;;;;;5029707;28;21006;-71
2021/04/12 02:39:08;;;;;;;5.73;5.23;;;4.60;99.90;;;;;;5029588;28;20460;-71
2021/04/12 02:41:59;;;;;;;7.80;7.10;;;4.60;99.90;;;;;;5028804;28;20440;-71
2021/04/12 02:44:43;;;;;;;5.83;5.33;;;4.50;99.90;;;;;;5019640;28;20429;-71
2021/04/12 02:47:37;;;;;;;7.07;6.47;;;4.50;99.90;;;;;;5029839;28;20494;-71
2021/04/12 02:50:20;;;;;;;7.17;6.50;;;4.40;99.90;;;;;;5029427;28;20428;-71
2021/04/12 02:53:15;;;;;;;7.63;6.93;;;4.40;99.90;;;;;;5029907;28;20444;-71
2021/04/12 02:55:46;;;;;;;8.20;7.40;;;4.30;99.90;;;;;;5017939;28;20425;-71
2021/04/12 02:58:47;;;;;;;7.60;6.83;;;4.20;99.90;;;;;;5030008;28;20464;-71
2021/04/12 03:01:31;;;;;;;6.97;6.27;;;4.20;99.90;;;;;;5029005;28;20456;-71
2021/04/12 03:04:21;;;;;;;7.27;6.57;;;4.20;99.90;;;;;;5032004;28;20660;-71
2021/04/12 03:07:24;;;;;;;7.80;7.03;;;4.20;99.90;;;;;;5033365;28;20447;-71
2021/04/12 03:09:55;;;;;;;8.33;7.20;;;4.10;99.90;;;;;;5031653;28;20467;-71
2021/04/12 03:12:45;;;;;;;7.27;6.57;;;4.20;99.90;;;;;;5017750;28;20441;-71
2021/04/12 03:15:48;;;;;;;7.53;6.83;;;4.20;99.90;;;;;;5033195;28;20994;-71
2021/04/12 03:18:25;;;;;;;7.47;6.77;;;4.20;99.90;;;;;;5031163;28;20463;-71
2021/04/12 03:20:59;;;;;;;8.37;7.07;;;4.10;99.90;;;;;;5027657;28;20746;-71
2021/04/12 03:23:49;;;;;;;7.60;6.60;;;4.10;99.90;;;;;;5026263;28;20433;-71
2021/04/12 03:26:40;;;;;;;7.50;6.70;;;4.10;99.90;;;;;;5025805;28;20547;-71
2021/04/12 03:29:20;;;;;;;8.30;7.50;;;4.20;99.90;;;;;;5028580;28;20821;-71
2021/04/12 03:32:13;;;;;;;6.93;6.23;;;4.10;99.90;;;;;;5024341;28;20449;-71
2021/04/12 03:35:08;;;;;;;6.80;6.20;;;4.10;99.90;;;;;;5021555;28;20464;-71
2021/04/12 03:37:44;;;;;;;8.80;7.43;;;4.00;99.90;;;;;;5032137;28;20514;-71
2021/04/12 03:40:38;;;;;;;8.37;6.80;;;4.00;99.90;;;;;;5018854;28;20417;-71
2021/04/12 03:43:28;;;;;;;6.90;6.20;;;4.10;99.90;;;;;;5029801;28;20460;-71
2021/04/12 03:46:36;;;;;;;8.10;6.67;;;4.20;99.90;;;;;;5026623;28;20444;-71
2021/04/12 03:49:23;;;;;;;8.50;7.60;;;4.20;99.90;;;;;;4987738;28;20447;-71
2021/04/12 03:52:06;;;;;;;7.83;7.07;;;4.10;99.90;;;;;;5030172;28;20535;-71
2021/04/12 03:54:43;;;;;;;8.90;7.07;;;4.10;99.90;;;;;;5016135;28;20469;-71
2021/04/12 03:57:33;;;;;;;7.70;6.40;;;4.10;99.90;;;;;;5032035;28;20506;-71
2021/04/12 04:00:14;;;;;;;7.27;6.57;;;4.10;99.90;;;;;;5027694;28;20433;-71
2021/04/12 04:03:17;;;;;;;8.20;7.40;;;4.20;99.90;;;;;;5017171;28;20500;-71
2021/04/12 04:05:49;;;;;;;8.20;7.50;;;4.20;99.90;;;;;;5032724;28;20421;-71
2021/04/12 04:08:31;;;;;;;9.53;7.60;;;4.20;99.90;;;;;;5032278;28;20421;-71
2021/04/12 04:11:03;;;;;;;11.40;8.10;;;4.10;99.90;;;;;;5031896;28;20507;-71
2021/04/12 04:13:45;;;;;;;9.33;8.33;;;4.10;99.90;;;;;;5032541;28;20972;-71
2021/04/12 04:16:12;;;;;;;7.13;6.50;;;4.00;99.90;;;;;;5030588;28;20806;-71
2021/04/12 04:18:53;;;;;;;9.67;8.70;;;4.00;99.90;;;;;;5031796;28;20456;-71
2021/04/12 04:21:19;;;;;;;7.90;7.20;;;4.00;99.90;;;;;;5031666;28;20449;-71
2021/04/12 04:23:59;;;;;;;8.30;7.50;;;4.10;99.90;;;;;;5032099;28;20435;-71
2021/04/12 04:26:54;;;;;;;8.23;7.37;;;4.10;99.90;;;;;;5032153;28;20158;-71
2021/04/12 04:29:56;;;;;;;10.50;8.53;;;4.10;99.90;;;;;;5031566;28;20440;-71
2021/04/12 04:33:00;;;;;;;8.10;7.30;;;4.10;99.90;;;;;;5016071;28;20452;-71
2021/04/12 04:35:42;;;;;;;9.10;7.63;;;4.10;99.90;;;;;;5031861;28;20432;-71
2021/04/12 04:38:44;;;;;;;6.90;6.27;;;4.10;99.90;;;;;;5031798;28;20452;-71
2021/04/12 04:41:31;;;;;;;7.20;6.50;;;4.10;99.90;;;;;;5030763;28;20444;-71
2021/04/12 04:44:13;;;;;;;6.40;5.80;;;4.00;99.90;;;;;;5022545;28;20567;-71
2021/04/12 04:47:12;;;;;;;5.87;5.30;;;3.90;99.90;;;;;;5031492;28;20439;-71
2021/04/12 04:49:59;;;;;;;7.60;6.90;;;3.90;99.90;;;;;;5029777;28;20425;-71
2021/04/12 04:52:38;;;;;;;6.20;5.57;;;3.80;99.90;;;;;;5031765;28;20437;-71
2021/04/12 04:55:13;;;;;;;7.47;5.60;;;3.80;99.90;;;;;;5031253;28;20421;-71
2021/04/12 04:57:57;;;;;;;7.00;5.73;;;3.90;99.90;;;;;;5029961;28;20445;-71
2021/04/12 05:00:42;;;;;;;7.27;5.67;;;3.90;99.90;;;;;;5027706;28;20440;-71
2021/04/12 05:03:38;;;;;;;5.20;4.70;;;3.80;99.90;;;;;;5030240;28;20475;-71
2021/04/12 05:06:41;;;;;;;5.73;5.07;;;3.80;99.90;;;;;;5023398;28;20510;-71
2021/04/12 05:09:41;;;;;;;5.73;5.23;;;3.80;99.90;;;;;;5029402;28;20416;-71
2021/04/12 05:12:24;;;;;;;4.93;4.47;;;3.80;99.90;;;;;;5031227;28;20448;-72
2021/04/12 05:15:24;;;;;;;5.87;5.13;;;3.70;99.90;;;;;;5031005;28;20463;-70
2021/04/12 05:18:14;;;;;;;6.50;5.63;;;3.70;99.90;;;;;;5030936;28;20453;-70
2021/04/12 05:21:04;;;;;;;6.60;6.00;;;3.70;99.90;;;;;;5029806;28;20432;-70
2021/04/12 05:23:33;;;;;;;9.37;6.10;;;3.80;99.90;;;;;;5030550;28;20477;-70
2021/04/12 05:26:14;;;;;;;7.67;6.03;;;3.80;99.90;;;;;;5027061;28;20429;-70
2021/04/12 05:29:11;;;;;;;7.10;6.47;;;3.70;99.90;;;;;;5030555;28;20554;-70
2021/04/12 05:31:50;;;;;;;5.80;5.20;;;3.80;99.90;;;;;;5016607;28;20457;-70
2021/04/12 05:34:53;;;;;;;5.87;5.27;;;3.90;99.90;;;;;;5026685;28;20436;-70
2021/04/12 05:37:40;;;;;;;6.60;5.80;;;4.00;99.90;;;;;;4992418;28;20456;-67
2021/04/12 05:40:27;;;;;;;6.97;6.37;;;4.00;99.90;;;;;;5019978;28;20428;-66
2021/04/12 05:43:19;;;;;;;5.27;4.77;;;4.00;99.90;;;;;;5030074;28;21195;-66
2021/04/12 05:46:21;;;;;;;6.23;5.10;;;3.90;99.90;;;;;;5030165;28;20493;-68
2021/04/12 05:49:26;;;;;;;6.03;5.13;;;3.90;99.90;;;;;;5029134;28;20424;-69
2021/04/12 05:52:07;;;;;;;6.20;5.60;;;3.80;99.90;;;;;;5006433;28;20526;-69
2021/04/12 05:55:10;;;;;;;7.20;6.50;;;3.80;99.90;;;;;;5029454;28;20424;-68
2021/04/12 05:57:52;;;;;;;6.70;6.10;;;3.90;99.90;;;;;;5021583;28;20471;-68
2021/04/12 06:00:32;;;;;;;7.07;6.40;;;3.80;99.90;;;;;;5029039;28;20567;-69
2021/04/12 06:03:08;;;;;;;8.67;7.87;;;3.80;99.90;;;;;;5051510;22;20626;-66
2021/04/12 06:05:43;;;;;;;10.53;8.63;;;3.90;99.90;;;;;;5026512;28;20428;-66
2021/04/12 06:08:32;;;;;;;9.97;9.07;;;3.90;99.90;;;;;;5030233;28;20785;-66
2021/04/12 06:11:19;;;;;;;9.57;8.67;;;4.00;99.90;;;;;;5029173;28;20509;-65
2021/04/12 06:14:03;;;;;;;11.83;8.53;;;4.10;99.90;;;;;;5001863;28;20425;-65
2021/04/12 06:16:47;;;;;;;9.97;9.03;;;4.10;99.90;;;;;;5010288;28;20437;-66
2021/04/12 06:19:57;;;;;;;11.40;9.80;;;4.20;99.90;;;;;;5009542;28;20476;-66
2021/04/12 06:22:41;;;;;;;9.47;8.47;;;4.30;99.90;;;;;;4956357;28;20800;-66
2021/04/12 06:25:23;;;;;;;10.47;9.47;;;4.30;99.90;;;;;;5006607;28;20453;-66
2021/04/12 06:28:21;;;;;;;10.73;9.63;;;4.40;99.90;;;;;;5010440;28;20483;-66
2021/04/12 06:30:59;;;;;;;11.33;10.17;;;4.50;99.90;;;;;;5004538;28;20461;-66
2021/04/12 06:33:51;;;;;;;10.97;9.87;;;4.50;99.90;;;;;;5004946;28;20449;-65
2021/04/12 06:36:31;;;;;;;11.77;10.00;;;4.50;99.90;;;;;;4978268;28;21048;-65
2021/04/12 06:39:08;;;;;;;10.97;9.97;;;4.60;99.90;;;;;;5007743;28;20469;-65
2021/04/12 06:42:12;;;;;;;12.30;11.10;;;4.90;99.90;;;;;;4996829;28;20441;-66
2021/04/12 06:44:56;;;;;;;13.10;10.27;;;5.00;99.90;;;;;;5008602;28;20490;-65
2021/04/12 06:47:43;;;;;;;11.17;10.07;;;4.90;99.90;;;;;;5012890;28;20448;-65
2021/04/12 06:50:14;;;;;;;14.03;12.57;;;5.00;99.90;;;;;;5012987;28;21091;-65
2021/04/12 06:53:07;;;;;;;11.87;9.60;;;4.90;99.90;;;;;;5010013;28;20952;-65
2021/04/12 06:55:54;;;;;;;9.93;8.97;;;4.80;99.90;;;;;;5006312;28;20425;-66
2021/04/12 06:58:41;;;;;;;10.60;9.50;;;4.90;99.90;;;;;;5013371;28;20544;-66
2021/04/12 07:01:44;;;;;;;10.43;9.10;;;5.00;99.90;;;;;;5013087;28;20532;-65
2021/04/12 07:04:34;;;;;;;12.30;10.40;;;4.90;99.90;;;;;;5003954;28;20429;-65
2021/04/12 07:07:08;;;;;;;11.23;9.50;;;5.00;99.90;;;;;;5010926;28;20433;-66
2021/04/12 07:09:40;;;;;;;10.23;9.13;;;4.90;99.90;;;;;;5012987;28;20444;-65
2021/04/12 07:12:56;;;;;;;9.10;8.23;;;4.90;99.90;;;;;;5013758;28;20841;-64
2021/04/12 07:15:29;;;;;;;11.17;9.40;;;4.90;99.90;;;;;;5013320;28;20433;-67
2021/04/12 07:18:32;;;;;;;11.57;10.10;;;4.80;99.90;;;;;;5013331;28;20798;-66
2021/04/12 07:21:28;;;;;;;10.23;9.00;;;4.90;99.90;;;;;;5012395;28;20484;-67
2021/04/12 07:24:22;;;;;;;10.80;9.70;;;4.80;99.90;;;;;;5012729;28;20954;-67
2021/04/12 07:27:25;;;;;;;11.53;10.43;;;4.70;99.90;;;;;;5013025;28;20468;-66
2021/04/12 07:30:31;;;;;;;11.87;10.63;;;4.70;99.90;;;;;;5012159;28;20457;-67
2021/04/12 07:33:38;;;;;;;11.93;10.20;;;4.90;99.90;;;;;;5012736;28;20831;-67
2021/04/12 07:36:41;;;;;;;12.43;11.13;;;5.10;99.90;;;;;;4997791;28;20429;-66
2021/04/12 07:39:15;;;;;;;15.33;12.13;;;5.20;99.90;;;;;;5002836;28;20492;-65
2021/04/12 07:42:07;;;;;;;13.37;12.00;;;5.20;99.90;;;;;;5012340;28;20532;-66
2021/04/12 07:44:54;;;;;;;13.57;12.17;;;5.20;99.90;;;;;;5012696;28;20421;-66
2021/04/12 07:47:51;;;;;;;14.43;13.03;;;5.30;99.90;;;;;;5012179;28;20450;-65
2021/04/12 07:50:36;;;;;;;14.70;13.20;;;5.30;99.90;;;;;;5010789;28;20495;-65
2021/04/12 07:53:42;;;;;;;13.67;12.17;;;5.30;99.90;;;;;;5009233;28;20899;-65
2021/04/12 07:56:54;;;;;;;17.23;15.37;;;5.30;99.90;;;;;;5006626;28;20953;-65
2021/04/12 07:59:50;;;;;;;16.70;15.03;;;5.30;99.90;;;;;;5012075;28;20786;-65
2021/04/12 08:02:56;;;;;;;15.40;13.77;;;5.30;99.90;;;;;;5012579;28;20476;-65
2021/04/12 08:06:00;;;;;;;21.23;14.87;;;5.50;99.90;;;;;;5012325;28;20433;-65
2021/04/12 08:08:47;;;;;;;16.33;14.27;;;5.60;99.90;;;;;;5008532;28;20453;-67
2021/04/12 08:11:49;;;;;;;16.30;14.53;;;5.70;99.90;;;;;;5010713;28;20524;-65
2021/04/12 08:14:25;;;;;;;17.87;15.47;;;5.90;99.90;;;;;;5011384;28;20429;-65
2021/04/12 08:17:37;;;;;;;20.70;14.37;;;6.10;99.90;;;;;;4993238;28;20950;-65
2021/04/12 08:20:14;;;;;;;15.90;14.30;;;6.10;99.90;;;;;;5011540;28;20456;-66
2021/04/12 08:22:45;;;;;;;15.53;14.03;;;6.10;99.90;;;;;;5005300;28;20453;-66
2021/04/12 08:25:48;;;;;;;16.03;14.43;;;6.40;99.90;;;;;;5012255;28;20479;-65
2021/04/12 08:28:17;;;;;;;17.63;15.37;;;6.60;99.90;;;;;;5010137;28;20434;-66
2021/04/12 08:31:26;;;;;;;17.57;15.77;;;6.70;99.90;;;;;;5005713;28;20866;-64
2021/04/12 08:34:03;;;;;;;16.43;14.73;;;6.80;99.90;;;;;;5002847;28;20444;-66
2021/04/12 08:36:55;;;;;;;17.10;15.20;;;6.60;99.90;;;;;;5004927;28;20837;-66
2021/04/12 08:39:54;;;;;;;18.20;15.77;;;6.30;99.90;;;;;;5005131;28;21050;-66
2021/04/12 08:42:39;;;;;;;15.30;13.70;;;6.30;99.90;;;;;;5000053;28;20456;-65
2021/04/12 08:45:12;;;;;;;17.40;14.77;;;6.50;99.90;;;;;;5005638;28;20441;-66
2021/04/12 08:47:41;;;;;;;14.53;13.13;;;6.60;99.90;;;;;;4994688;28;20430;-67
2021/04/12 08:50:38;;;;;;;13.03;11.73;;;6.70;99.90;;;;;;5008116;28;20437;-66
2021/04/12 08:53:41;;;;;;;14.40;12.90;;;6.90;99.90;;;;;;5007458;28;20833;-68
2021/04/12 08:56:28;;;;;;;12.87;11.67;;;6.70;99.90;;;;;;5008719;28;20433;-67
2021/04/12 08:58:59;;;;;;;14.07;12.67;;;6.90;99.90;;;;;;5008803;28;21006;-66
2021/04/12 09:02:02;;;;;;;11.93;10.83;;;6.90;99.90;;;;;;5008088;28;20442;-67
2021/04/12 09:04:58;;;;;;;11.93;10.73;;;7.10;99.90;;;;;;5006732;28;20532;-66
2021/04/12 09:07:39;;;;;;;14.07;11.70;;;7.20;99.90;;;;;;5008510;28;20978;-67
2021/04/12 09:10:29;;;;;;;13.20;12.00;;;7.00;99.90;;;;;;5001610;28;20485;-68
2021/04/12 09:12:58;;;;;;;12.43;11.20;;;7.10;99.90;;;;;;5006273;28;20552;-67
2021/04/12 09:15:38;;;;;;;10.93;10.00;;;6.90;99.90;;;;;;5007390;28;20433;-66
2021/04/12 09:18:39;;;;;;;11.67;10.40;;;7.10;99.90;;;;;;5007820;28;20469;-66
2021/04/12 09:21:53;;;;;;;10.60;9.60;;;7.50;99.90;;;;;;5007436;28;20436;-68
2021/04/12 09:24:30;;;;;;;8.80;7.90;;;7.60;99.90;;;;;;5000072;28;20440;-68
2021/04/12 09:27:51;;;;;;;9.07;8.17;;;7.30;99.90;;;;;;5010207;28;20425;-67
2021/04/12 09:30:33;;;;;;;8.87;7.97;;;7.60;99.90;;;;;;4930683;29;20437;-68
2021/04/12 09:33:23;;;;;;;11.00;7.77;;;8.00;99.90;;;;;;5011147;28;20454;-67
2021/04/12 09:36:26;;;;;;;9.10;8.20;;;8.30;99.90;;;;;;5010756;28;20425;-68
2021/04/12 09:39:35;;;;;;;9.70;8.67;;;8.80;99.90;;;;;;5007792;28;20461;-66
2021/04/12 09:42:11;;;;;;;7.40;6.70;;;9.00;99.90;;;;;;5005969;28;20468;-66
2021/04/12 09:45:01;;;;;;;10.90;7.10;;;8.60;99.90;;;;;;5006653;28;20440;-65
2021/04/12 09:47:28;;;;;;;8.40;7.20;;;8.40;99.90;;;;;;5010421;28;20938;-66
2021/04/12 09:50:25;;;;;;;7.37;6.70;;;8.50;99.90;;;;;;5010266;28;20433;-67
2021/04/12 09:53:13;;;;;;;7.07;6.47;;;8.30;99.90;;;;;;5010263;28;20884;-66
2021/04/12 09:55:52;;;;;;;8.30;7.20;;;8.10;99.90;;;;;;5005019;28;20440;-67
2021/04/12 09:58:42;;;;;;;6.57;6.00;;;7.90;99.90;;;;;;5010274;28;21121;-67
2021/04/12 10:01:19;;;;;;;6.30;5.57;;;7.70;99.90;;;;;;4995881;28;20537;-66
2021/04/12 10:04:02;;;;;;;6.83;6.17;;;7.90;99.90;;;;;;5010783;28;20433;-66
2021/04/12 10:07:00;;;;;;;6.30;5.70;;;8.10;99.90;;;;;;5006544;28;20425;-66
2021/04/12 10:09:35;;;;;;;6.33;5.63;;;8.30;99.90;;;;;;5010062;28;20424;-66
2021/04/12 10:12:29;;;;;;;5.70;5.20;;;8.10;99.90;;;;;;5010369;28;20538;-66
2021/04/12 10:15:07;;;;;;;9.67;5.30;;;8.10;99.90;;;;;;5010110;28;20934;-66
2021/04/12 10:17:49;;;;;;;8.43;5.00;;;8.40;99.90;;;;;;5006252;28;20488;-66
2021/04/12 10:20:42;;;;;;;5.10;4.60;;;8.80;99.90;;;;;;4995672;28;20957;-66
2021/04/12 10:23:28;;;;;;;6.23;4.93;;;9.10;99.90;;;;;;5000376;28;20553;-66
2021/04/12 10:26:23;;;;;;;10.60;5.97;;;9.10;99.90;;;;;;5008792;28;20437;-66
2021/04/12 10:28:56;;;;;;;9.43;6.77;;;9.10;99.90;;;;;;5007766;28;20965;-66
2021/04/12 10:31:52;;;;;;;8.33;7.53;;;8.70;99.90;;;;;;5009984;28;20468;-66
2021/04/12 10:34:23;;;;;;;27.63;17.90;;;8.70;99.90;;;;;;5005119;28;20974;-66
2021/04/12 10:37:19;;;;;;;21.63;18.33;;;9.10;99.90;;;;;;5009974;28;20452;-66
2021/04/12 10:39:59;;;;;;;7.20;6.50;;;9.70;99.90;;;;;;5009428;28;20821;-66
2021/04/12 10:42:39;;;;;;;7.00;5.27;;;10.30;99.90;;;;;;5008922;28;20989;-64
2021/04/12 10:45:08;;;;;;;4.53;4.13;;;10.90;99.90;;;;;;5004777;28;20452;-65
2021/04/12 10:47:43;;;;;;;4.90;4.37;;;10.70;99.90;;;;;;5010328;28;20474;-66
2021/04/12 10:51:00;;;;;;;7.13;6.43;;;10.60;99.90;;;;;;5009971;28;20543;-65
2021/04/12 10:53:59;;;;;;;4.90;4.50;;;9.80;99.90;;;;;;4984874;28;20458;-67
2021/04/12 10:56:37;;;;;;;3.50;3.30;;;9.90;99.90;;;;;;5009629;28;20440;-67
2021/04/12 10:59:40;;;;;;;5.47;4.17;;;9.90;99.90;;;;;;5009680;28;20519;-67
2021/04/12 11:02:39;;;;;;;5.10;4.60;;;9.70;99.90;;;;;;5009659;28;20457;-67
2021/04/12 11:05:10;;;;;;;7.67;4.90;;;9.90;99.90;;;;;;5010001;28;20430;-67
2021/04/12 11:08:06;;;;;;;15.53;12.50;;;10.00;99.90;;;;;;5010233;28;20529;-65
2021/04/12 11:10:43;;;;;;;6.77;5.37;;;10.20;99.90;;;;;;5005202;28;20433;-64
2021/04/12 11:13:11;;;;;;;16.43;8.77;;;9.20;99.90;;;;;;5009732;28;20449;-68
2021/04/12 11:15:45;;;;;;;11.93;8.17;;;9.00;99.90;;;;;;5010390;28;21010;-65
2021/04/12 11:18:32;;;;;;;5.13;4.70;;;8.70;99.90;;;;;;5009751;28;20541;-66
2021/04/12 11:21:07;;;;;;;4.63;4.23;;;8.50;99.90;;;;;;5000132;28;20426;-66
2021/04/12 11:23:47;;;;;;;9.07;5.77;;;8.20;99.90;;;;;;5000493;28;20452;-65
2021/04/12 11:26:22;;;;;;;4.47;4.13;;;8.40;99.90;;;;;;4998023;28;20426;-66
2021/04/12 11:29:18;;;;;;;4.90;3.97;;;9.00;99.90;;;;;;5012027;28;20504;-66
2021/04/12 11:32:01;;;;;;;3.70;3.40;;;9.80;99.90;;;;;;5012451;28;20449;-66
2021/04/12 11:34:41;;;;;;;5.80;4.03;;;10.00;99.90;;;;;;5000236;28;20516;-66
2021/04/12 11:37:20;;;;;;;4.23;3.30;;;10.00;99.90;;;;;;5011322;28;20429;-65
2021/04/12 11:40:01;;;;;;;4.07;3.67;;;10.50;99.90;;;;;;5012299;28;20433;-66
2021/04/12 11:42:34;;;;;;;4.13;3.47;;;11.20;99.90;;;;;;5003676;28;21054;-67
2021/04/12 11:45:06;;;;;;;7.53;3.77;;;11.70;99.90;;;;;;5012743;28;20473;-66
2021/04/12 11:48:11;;;;;;;4.07;3.67;;;12.00;99.90;;;;;;5004545;28;20474;-66
2021/04/12 11:50:58;;;;;;;4.53;3.73;;;11.60;99.90;;;;;;5010238;28;20783;-66
2021/04/12 11:53:26;;;;;;;3.70;3.40;;;11.00;99.90;;;;;;5012759;28;20946;-66
2021/04/12 11:56:03;;;;;;;4.43;3.40;;;10.90;99.90;;;;;;5012440;28;20517;-67
2021/04/12 11:59:04;;;;;;;5.77;3.37;;;11.80;99.60;;;;;;5001650;28;20564;-66
2021/04/12 12:01:55;;;;;;;4.30;3.47;;;12.00;98.30;;;;;;5005574;28;20433;-66
2021/04/12 12:04:41;;;;;;;3.50;3.20;;;11.60;97.40;;;;;;4999502;28;20429;-66
2021/04/12 12:07:37;;;;;;;5.37;3.20;;;11.20;96.70;;;;;;5009697;28;20536;-67
2021/04/12 12:10:13;;;;;;;3.43;2.70;;;11.00;97.80;;;;;;5009021;28;20767;-66
2021/04/12 12:13:02;;;;;;;4.43;3.00;;;10.70;98.30;;;;;;5009491;28;20483;-66
2021/04/12 12:15:33;;;;;;;4.03;3.13;;;10.30;99.00;;;;;;5009840;28;20571;-66
2021/04/12 12:18:05;;;;;;;3.70;3.30;;;9.70;99.90;;;;;;5007798;28;21031;-66
2021/04/12 12:20:50;;;;;;;3.07;2.77;;;9.60;99.90;;;;;;5008974;28;20806;-66
2021/04/12 12:23:30;;;;;;;2.30;2.20;;;9.60;99.90;;;;;;5001763;28;20515;-67
2021/04/12 12:26:00;;;;;;;2.70;2.50;;;9.30;99.90;;;;;;5008936;28;21180;-65
2021/04/12 12:28:38;;;;;;;2.70;2.50;;;9.10;99.90;;;;;;5008554;28;20999;-65
2021/04/12 12:31:33;;;;;;;2.50;2.30;;;8.90;99.90;;;;;;5008742;28;20441;-65
2021/04/12 12:34:30;;;;;;;3.30;2.50;;;9.00;99.90;;;;;;5009354;28;20549;-65
2021/04/12 12:37:02;;;;;;;2.70;2.33;;;9.70;99.90;;;;;;4992151;28;20820;-66
2021/04/12 12:39:39;;;;;;;3.70;3.30;;;12.50;98.60;;;;;;5009064;28;20449;-65
2021/04/12 12:42:28;;;;;;;2.07;1.87;;;13.20;93.30;;;;;;5007773;28;20464;-65
2021/04/12 12:44:55;;;;;;;4.33;2.17;;;12.70;92.60;;;;;;4999370;28;20449;-66
2021/04/12 12:47:25;;;;;;;5.43;2.73;;;11.90;92.30;;;;;;5007091;28;20444;-65
2021/04/12 12:49:55;;;;;;;3.40;2.50;;;11.20;92.70;;;;;;5008818;28;20442;-66
2021/04/12 12:52:29;;;;;;;2.40;1.73;;;10.40;94.70;;;;;;5009041;28;20921;-67
2021/04/12 12:54:58;;;;;;;5.00;2.43;;;9.80;95.10;;;;;;5008906;28;20449;-68
2021/04/12 12:57:33;;;;;;;3.30;2.43;;;9.70;96.40;;;;;;5008402;28;20512;-66
2021/04/12 13:00:23;;;;;;;2.10;1.90;;;9.90;95.90;;;;;;5008550;28;20444;-65
2021/04/12 13:02:49;;;;;;;3.73;2.87;;;10.10;95.20;;;;;;5008401;28;20513;-66
2021/04/12 13:05:21;;;;;;;2.80;2.10;;;10.40;95.50;;;;;;5008908;28;20461;-66
2021/04/12 13:07:49;;;;;;;2.00;1.90;;;10.20;92.90;;;;;;5007115;28;20436;-66
2021/04/12 13:10:17;;;;;;;2.10;1.90;;;9.90;92.70;;;;;;5007560;28;20433;-66
2021/04/12 13:12:48;;;;;;;2.60;2.40;;;9.80;92.60;;;;;;4996081;28;20454;-66
2021/04/12 13:15:20;;;;;;;2.37;2.00;;;10.00;92.70;;;;;;5004237;28;20441;-66
2021/04/12 13:17:47;;;;;;;5.80;2.90;;;10.00;92.00;;;;;;5032601;22;20492;-66
2021/04/12 13:20:22;;;;;;;2.47;2.27;;;9.70;92.90;;;;;;5027162;28;20425;-66
2021/04/12 13:23:22;;;;;;;1.73;1.63;;;9.60;93.40;;;;;;5023559;28;20435;-66
2021/04/12 13:25:50;;;;;;;1.90;1.70;;;9.40;92.30;;;;;;5027259;28;20447;-66
2021/04/12 13:28:21;;;;;;;2.40;1.90;;;9.30;93.50;;;;;;5026528;28;20493;-66
2021/04/12 13:31:12;;;;;;;3.97;2.60;;;9.30;94.00;;;;;;5027144;28;20441;-67
2021/04/12 13:33:47;;;;;;;5.40;2.20;;;9.40;94.30;;;;;;5018056;28;20442;-67
2021/04/12 13:36:23;;;;;;;2.70;1.90;;;9.30;94.50;;;;;;5019949;28;20544;-67
2021/04/12 13:38:52;;;;;;;4.77;2.30;;;9.40;94.20;;;;;;5027251;28;20469;-68
2021/04/12 13:41:31;;;;;;;3.70;2.20;;;9.70;95.10;;;;;;5027117;28;20448;-68
2021/04/12 13:44:08;;;;;;;3.07;2.20;;;9.80;94.60;;;;;;5027778;28;20433;-69
2021/04/12 13:46:58;;;;;;;3.87;2.60;;;10.40;94.70;;;;;;5027078;28;20448;-68
2021/04/12 13:49:32;;;;;;;3.20;2.27;;;10.70;93.10;;;;;;5026257;28;20486;-68
2021/04/12 13:52:13;;;;;;;2.60;1.93;;;10.80;93.00;;;;;;5027507;28;20436;-67
2021/04/12 13:54:43;;;;;;;2.43;2.23;;;11.30;92.90;;;;;;5026737;28;21008;-69
2021/04/12 13:57:23;;;;;;;4.90;2.97;;;11.20;92.10;;;;;;5027726;28;20444;-69
2021/04/12 13:59:56;;;;;;;3.03;1.97;;;11.50;92.50;;;;;;5027297;28;20527;-69
2021/04/12 14:02:32;;;;;;;2.27;2.07;;;11.10;92.50;;;;;;5027139;28;21148;-69
2021/04/12 14:05:01;;;;;;;3.23;2.57;;;10.60;93.30;;;;;;5027414;28;20429;-68
2021/04/12 14:07:39;;;;;;;4.30;2.30;;;10.60;93.20;;;;;;5027627;28;20991;-68
2021/04/12 14:10:11;;;;;;;3.17;2.37;;;10.50;93.80;;;;;;5027093;28;20513;-68
2021/04/12 14:13:02;;;;;;;3.90;2.67;;;10.60;93.20;;;;;;5027600;28;20433;-67
2021/04/12 14:15:42;;;;;;;4.47;2.67;;;10.60;91.70;;;;;;5017305;28;20433;-69
2021/04/12 14:18:11;;;;;;;4.70;2.47;;;10.70;92.10;;;;;;5024967;28;20461;-67
2021/04/12 14:20:44;;;;;;;3.13;2.10;;;10.50;90.70;;;;;;5026848;28;20524;-69
2021/04/12 14:23:36;;;;;;;2.90;2.60;;;10.60;90.90;;;;;;5027049;28;20466;-69
2021/04/12 14:26:12;;;;;;;3.03;2.50;;;10.40;92.10;;;;;;5013319;28;20441;-68
2021/04/12 14:28:47;;;;;;;3.07;2.77;;;10.40;91.80;;;;;;5026643;28;20488;-69